To NAV CANADA Home Page Login to a new session Search on AWWS site Feedback and Comments Disclaimer Vers la page française équivalente Tips FAQ What's new on the site To the Forecasts and Observations / NOTAM section To "File a Flight Plan" website Publications and other links Update of the User's profile FIC Telephone Numbers My Weather Data Folder Route Weather Data Regional Weather Data Local Weather Data To the Forecasts and Observations / NOTAM section
Request Generated 10/17/2017 at 01:55:26 UTC . Weather information available at that time is displayed.

METAR/TAF

HAMILTON/ON    

METAR CYHM 170100Z 35002KT 15SM FEW050 06/M02 A3025 RMK SC1 SC TR
SLP253=
METAR CYHM 170000Z 31004KT 15SM FEW050 07/M03 A3025 RMK CU1 CU TR
SLP254=
METAR CYHM 162300Z 31003KT 15SM FEW050 07/M02 A3025 RMK CU1 CU TR
SLP253=

TAF CYHM 162338Z 1700/1724 31005KT P6SM FEW050
FM170300 VRB03KT P6SM SKC
BECMG 1708/1710 23008KT
FM171200 22008G18KT P6SM SKC
BECMG 1713/1715 23015G25KT
FM171800 24020G31KT P6SM SCT240
RMK NXT FCST BY 170600Z=
Your time UTC time
Weather data provided by Environment Canada and NAV CANADA